Time;durP1;ratioP1;P1;durP2;ratioP2;P2;SDS_P1;SDS_P2;PMS_P1;PMS_P2;Temp;Humidity;BMP_temperature;BMP_pressure;BME280_temperature;BME280_humidity;BME280_pressure;Samples;Min_cycle;Max_cycle;Signal;HPM_P1;HPM_P2
2022/11/16 00:03:54;;;;;;;15.13;9.25;;;;;;;10.66;70.52;98459.78;10314827;28;20057;-80
2022/11/16 00:14:20;;;;;;;15.95;10.43;;;;;;;10.59;70.93;98464.69;10312999;28;20053;-80
2022/11/16 00:19:23;;;;;;;16.88;9.65;;;;;;;10.58;70.89;98456.97;10329329;28;20061;-80
2022/11/16 00:24:24;;;;;;;13.60;9.25;;;;;;;10.53;70.92;98454.72;10311732;28;20046;-80
2022/11/16 00:29:26;;;;;;;18.00;11.63;;;;;;;10.59;71.14;98456.00;10311809;28;20054;-80
2022/11/16 00:34:28;;;;;;;16.85;11.82;;;;;;;10.45;71.27;98458.00;10311616;28;20522;-80
2022/11/16 00:39:30;;;;;;;19.58;12.52;;;;;;;10.48;71.32;98459.53;10311991;28;20061;-80
2022/11/16 00:44:31;;;;;;;15.25;10.43;;;;;;;10.44;71.73;98450.25;10312895;28;20054;-80
2022/11/16 00:49:33;;;;;;;15.88;10.55;;;;;;;10.41;71.70;98458.34;10310253;28;20538;-80
2022/11/16 00:54:35;;;;;;;31.23;18.38;;;;;;;10.52;71.61;98448.66;10312010;28;20125;-81
2022/11/16 00:59:36;;;;;;;20.48;13.43;;;;;;;10.33;72.16;98442.47;10312033;28;20527;-80
2022/11/16 01:04:38;;;;;;;18.67;13.35;;;;;;;10.08;73.00;98437.59;10311580;28;20142;-80
2022/11/16 01:09:40;;;;;;;20.05;15.35;;;;;;;10.01;73.38;98432.03;10311628;28;20057;-81
2022/11/16 01:14:44;;;;;;;19.20;15.10;;;;;;;10.17;73.24;98422.03;10326148;28;20419;-81
2022/11/16 01:19:45;;;;;;;19.80;14.98;;;;;;;10.28;73.11;98423.72;10312391;28;20062;-80
2022/11/16 01:24:47;;;;;;;55.42;27.48;;;;;;;10.29;72.93;98433.25;10327463;28;20046;-81
2022/11/16 01:29:48;;;;;;;44.28;25.65;;;;;;;10.21;73.18;98425.19;10310685;28;20484;-80
2022/11/16 01:34:50;;;;;;;19.23;15.07;;;;;;;10.19;73.28;98427.13;10322552;28;20073;-80
2022/11/16 01:39:53;;;;;;;21.05;16.20;;;;;;;10.10;73.68;98426.06;10330188;28;20061;-81
2022/11/16 01:45:13;;;;;;;20.05;13.50;;;;;;;10.08;73.99;98421.91;10321127;28;20046;-80
2022/11/16 01:50:17;;;;;;;24.55;16.42;;;;;;;10.24;73.48;98422.31;10319138;28;20120;-80
2022/11/16 01:55:20;;;;;;;20.30;16.33;;;;;;;10.29;73.18;98410.56;10327601;28;20499;-80
2022/11/16 02:00:22;;;;;;;14.57;12.02;;;;;;;10.33;73.32;98406.72;10320443;28;20052;-80
2022/11/16 02:05:58;;;;;;;12.90;10.45;;;;;;;10.39;73.32;98400.16;10327279;28;20051;-80
2022/11/16 02:10:59;;;;;;;13.48;9.55;;;;;;;10.52;73.14;98399.00;10319466;28;20069;-81
2022/11/16 02:16:38;;;;;;;20.75;13.35;;;;;;;10.60;72.88;98397.53;10318703;28;20051;-81
2022/11/16 02:21:50;;;;;;;14.20;10.63;;;;;;;10.63;72.39;98398.09;10318397;28;20058;-82
2022/11/16 02:26:55;;;;;;;34.60;21.00;;;;;;;10.67;72.48;98394.28;10326119;28;20140;-80
2022/11/16 02:32:14;;;;;;;41.00;23.27;;;;;;;10.72;72.29;98392.13;10317030;28;20073;-80
2022/11/16 02:37:19;;;;;;;37.67;22.50;;;;;;;10.73;72.42;98401.59;10315321;28;20046;-80
2022/11/16 02:42:28;;;;;;;26.75;18.75;;;;;;;10.67;72.55;98383.81;10318635;28;20097;-80
2022/11/16 02:47:33;;;;;;;21.58;15.95;;;;;;;10.71;72.52;98384.38;10316136;28;20065;-80
2022/11/16 02:52:36;;;;;;;23.08;16.00;;;;;;;10.82;71.98;98379.91;10316471;28;20062;-80
2022/11/16 02:57:44;;;;;;;38.58;22.55;;;;;;;10.90;72.13;98377.47;10321744;28;20519;-80
2022/11/16 03:03:09;;;;;;;58.85;27.95;;;;;;;10.89;71.67;98380.22;10319964;28;20423;-80
2022/11/16 03:08:32;;;;;;;144.00;32.53;;;;;;;10.75;72.11;98380.53;10328875;28;20058;-80
2022/11/16 03:13:36;;;;;;;27.73;19.55;;;;;;;10.59;72.75;98395.88;10337004;28;20058;-80
2022/11/16 03:18:39;;;;;;;46.47;25.00;;;;;;;10.64;72.91;98389.31;10336351;28;20046;-80
2022/11/16 03:23:42;;;;;;;33.15;21.77;;;;;;;10.71;72.21;98387.84;10329330;28;20069;-80
2022/11/16 03:29:04;;;;;;;191.93;42.88;;;;;;;10.72;72.69;98383.44;10318849;28;20057;-80
2022/11/16 03:34:15;;;;;;;77.63;31.50;;;;;;;10.60;72.66;98380.09;10320478;28;20061;-80
2022/11/16 03:39:22;;;;;;;23.25;17.50;;;;;;;10.60;72.64;98372.25;10318466;28;20055;-80
2022/11/16 03:44:25;;;;;;;37.05;23.00;;;;;;;10.59;72.72;98367.97;10319511;28;20076;-81
2022/11/16 03:49:29;;;;;;;46.05;22.17;;;;;;;10.54;72.80;98367.53;10320952;28;20137;-81
2022/11/16 03:54:31;;;;;;;33.30;20.65;;;;;;;10.47;72.87;98359.38;10322342;28;20415;-80
2022/11/16 03:59:33;;;;;;;58.78;24.52;;;;;;;10.36;73.20;98353.38;10337310;28;20061;-80
2022/11/16 04:25:56;;;;;;;52.73;25.60;;;;;;;10.58;72.30;98392.47;10312492;28;20428;-80
2022/11/16 04:47:05;;;;;;;1383.40;65.82;;;;;;;10.60;72.37;98402.78;10311868;28;20061;-80
2022/11/16 04:52:07;;;;;;;1020.95;53.03;;;;;;;10.62;72.18;98408.69;10317833;28;20109;-80
2022/11/16 04:57:09;;;;;;;209.60;29.60;;;;;;;10.69;71.94;98409.81;10311527;28;20046;-80
2022/11/16 05:02:12;;;;;;;233.48;37.22;;;;;;;10.60;71.97;98397.53;10317076;28;20125;-80
2022/11/16 05:07:22;;;;;;;62.78;30.20;;;;;;;10.59;72.37;98391.47;10303260;28;20050;-80
2022/11/16 05:12:30;;;;;;;29.25;20.58;;;;;;;10.65;72.32;98390.13;10304167;28;20058;-79
2022/11/16 05:17:39;;;;;;;51.60;16.60;;;;;;;10.69;72.22;98404.59;10316930;28;20141;-80
2022/11/16 05:22:41;;;;;;;150.65;39.75;;;;;;;10.76;71.77;98398.75;10304959;28;20061;-79
2022/11/16 05:27:43;;;;;;;112.95;37.45;;;;;;;10.77;71.53;98403.00;10309087;28;20054;-79
2022/11/16 05:32:47;;;;;;;99.68;32.58;;;;;;;10.77;71.72;98410.00;10318315;28;20065;-79
2022/11/16 05:37:48;;;;;;;81.85;30.52;;;;;;;10.78;71.50;98412.53;10319586;28;20072;-79
2022/11/16 05:42:50;;;;;;;47.05;26.25;;;;;;;10.81;71.50;98427.09;10315412;28;20057;-80
2022/11/16 05:47:54;;;;;;;68.55;31.77;;;;;;;10.83;71.38;98426.03;10332834;28;20058;-79
2022/11/16 05:52:55;;;;;;;53.22;28.52;;;;;;;10.71;71.24;98427.06;10315402;28;20062;-79
2022/11/16 05:57:58;;;;;;;61.75;29.85;;;;;;;10.75;71.50;98420.59;10315540;28;20754;-80
2022/11/16 06:03:00;;;;;;;1242.07;63.22;;;;;;;10.76;71.38;98424.91;10312478;28;20146;-79
2022/11/16 06:08:04;;;;;;;1014.90;61.35;;;;;;;10.52;71.49;98434.78;10317320;28;20070;-81
2022/11/16 06:13:07;;;;;;;21.02;13.57;;;;;;;10.31;71.75;98431.31;10325228;28;20061;-79
2022/11/16 06:18:13;;;;;;;13.00;7.55;;;;;;;10.12;71.63;98436.38;10318646;28;20077;-79
2022/11/16 06:23:17;;;;;;;11.95;6.90;;;;;;;9.94;71.65;98440.50;10327239;28;20058;-78
2022/11/16 06:28:26;;;;;;;12.90;6.53;;;;;;;9.73;71.81;98444.84;10318315;28;20057;-78
2022/11/16 06:33:28;;;;;;;8.88;4.75;;;;;;;9.57;72.04;98459.06;10326854;28;20062;-78
2022/11/16 06:38:39;;;;;;;10.73;5.60;;;;;;;9.43;72.08;98461.09;10327338;28;20050;-78
2022/11/16 06:43:42;;;;;;;11.43;5.22;;;;;;;9.30;72.24;98469.03;10320298;28;20054;-77
2022/11/16 06:48:44;;;;;;;12.55;6.28;;;;;;;9.20;72.39;98470.69;10322995;28;20149;-78
2022/11/16 06:53:48;;;;;;;11.15;5.32;;;;;;;9.12;72.37;98482.66;10314122;28;20409;-78
2022/11/16 06:58:49;;;;;;;12.05;4.50;;;;;;;9.01;72.58;98486.13;10317216;28;20086;-77
2022/11/16 07:03:55;;;;;;;11.05;5.95;;;;;;;8.94;72.47;98478.84;10328138;28;20461;-79
2022/11/16 07:09:08;;;;;;;7.78;2.40;;;;;;;8.82;72.85;98483.22;10314975;28;20039;-78
2022/11/16 07:14:11;;;;;;;10.32;3.05;;;;;;;8.92;72.53;98484.19;10312113;28;20054;-80
2022/11/16 07:19:14;;;;;;;12.80;3.15;;;;;;;8.93;72.55;98493.69;10313088;28;20073;-80
2022/11/16 07:24:27;;;;;;;9.07;3.00;;;;;;;8.94;72.50;98503.16;10311380;28;20054;-80
2022/11/16 07:29:30;;;;;;;8.18;2.80;;;;;;;9.00;72.04;98514.88;10312354;28;20056;-80
2022/11/16 07:34:32;;;;;;;9.05;2.88;;;;;;;9.05;72.21;98533.66;10311630;28;20539;-80
2022/11/16 07:39:34;;;;;;;13.95;3.20;;;;;;;9.08;71.80;98533.41;10311430;28;20050;-79
2022/11/16 07:44:43;;;;;;;7.63;2.38;;;;;;;9.08;71.88;98560.31;10309642;28;20870;-80
2022/11/16 07:49:47;;;;;;;10.55;3.33;;;;;;;9.15;71.78;98568.50;10312983;28;20050;-79
2022/11/16 07:54:49;;;;;;;8.63;2.50;;;;;;;9.09;71.68;98585.47;10322952;28;20054;-79
2022/11/16 07:59:56;;;;;;;8.52;2.20;;;;;;;9.16;71.49;98584.03;10310719;28;20520;-80
2022/11/16 08:05:00;;;;;;;8.60;2.35;;;;;;;9.31;71.14;98585.50;10309634;28;20050;-79
2022/11/16 08:10:08;;;;;;;9.07;2.40;;;;;;;9.41;70.29;98596.06;10313504;28;20436;-79
2022/11/16 08:15:22;;;;;;;10.07;2.17;;;;;;;9.51;69.97;98599.63;10307982;28;20057;-78
2022/11/16 08:20:24;;;;;;;10.00;2.20;;;;;;;9.58;70.01;98593.81;10309293;28;20534;-79
2022/11/16 08:25:29;;;;;;;12.55;2.03;;;;;;;9.46;69.94;98588.72;10307307;28;20133;-79
2022/11/16 08:30:37;;;;;;;12.15;2.50;;;;;;;9.50;69.88;98595.38;10309854;28;20871;-80
2022/11/16 08:35:39;;;;;;;12.23;2.38;;;;;;;9.75;69.62;98600.38;10328691;28;20057;-79
2022/11/16 08:40:41;;;;;;;10.52;1.98;;;;;;;9.81;68.95;98580.81;10313784;28;21004;-79
2022/11/16 08:45:48;;;;;;;5.00;1.90;;;;;;;10.05;68.30;98589.34;10333771;28;20427;-80
2022/11/16 08:50:50;;;;;;;10.35;2.33;;;;;;;10.14;68.47;98593.84;10315501;28;20068;-80
2022/11/16 08:56:13;;;;;;;11.90;2.22;;;;;;;10.13;67.99;98594.81;10316816;28;20692;-79
2022/11/16 09:01:22;;;;;;;10.50;2.58;;;;;;;10.22;67.30;98597.50;10315135;28;20125;-79
2022/11/16 09:06:25;;;;;;;9.65;2.40;;;;;;;10.27;67.39;98602.38;10314446;28;20100;-79
2022/11/16 09:11:28;;;;;;;9.18;2.20;;;;;;;10.23;67.64;98601.78;10317016;28;20064;-79
2022/11/16 09:16:39;;;;;;;10.55;2.70;;;;;;;10.35;67.03;98592.97;10319744;28;20053;-81
2022/11/16 09:21:49;;;;;;;12.23;2.17;;;;;;;10.39;66.75;98597.00;10324459;28;20066;-78
2022/11/16 09:26:56;;;;;;;8.20;2.03;;;;;;;10.45;66.88;98604.34;10317200;28;20524;-78
2022/11/16 09:31:58;;;;;;;7.22;2.00;;;;;;;10.50;66.62;98596.97;10316958;28;20042;-78
2022/11/16 09:37:00;;;;;;;10.05;2.80;;;;;;;10.63;66.11;98596.81;10316803;28;20074;-78
2022/11/16 09:42:24;;;;;;;8.60;2.40;;;;;;;10.70;65.09;98603.22;10314285;28;20062;-78
2022/11/16 09:47:47;;;;;;;14.43;2.53;;;;;;;10.72;65.16;98617.00;10316403;28;20042;-78
2022/11/16 09:52:55;;;;;;;12.32;2.47;;;;;;;11.07;65.23;98607.09;10313089;28;20471;-77
2022/11/16 09:58:01;;;;;;;8.57;2.10;;;;;;;11.34;64.31;98605.78;10315664;28;20050;-79
2022/11/16 10:03:11;;;;;;;12.25;2.50;;;;;;;11.17;62.54;98602.75;10316105;28;20058;-78
2022/11/16 10:08:21;;;;;;;10.88;2.20;;;;;;;11.18;63.26;98595.75;10324705;28;20108;-78
2022/11/16 10:19:29;;;;;;;10.40;2.25;;;;;;;11.24;62.57;98598.69;10314732;28;20065;-79
2022/11/16 10:24:56;;;;;;;12.73;2.65;;;;;;;11.12;61.89;98597.09;10315227;28;20050;-77
2022/11/16 10:30:07;;;;;;;10.98;2.50;;;;;;;11.23;62.00;98604.06;10315272;28;20058;-78
2022/11/16 10:42:10;;;;;;;11.82;2.65;;;;;;;11.11;61.91;98592.00;10310798;28;20042;-78
2022/11/16 10:47:31;;;;;;;11.75;2.70;;;;;;;11.27;61.94;98587.16;10316461;28;20596;-78
2022/11/16 10:52:35;;;;;;;9.98;2.17;;;;;;;11.47;62.27;98575.00;10312392;28;20516;-78
2022/11/16 10:58:04;;;;;;;12.68;2.47;;;;;;;11.45;62.07;98569.88;10320893;28;20047;-78
2022/11/16 11:03:10;;;;;;;11.27;1.98;;;;;;;11.53;61.87;98570.06;10318200;28;20073;-78
2022/11/16 11:08:24;;;;;;;11.52;2.33;;;;;;;12.00;60.89;98565.97;10339230;28;21102;-78
2022/11/16 11:13:26;;;;;;;11.45;2.15;;;;;;;12.26;60.79;98569.75;10317618;28;20061;-78
2022/11/16 11:18:28;;;;;;;13.07;2.53;;;;;;;12.38;60.02;98560.84;10317521;28;20837;-78
2022/11/16 11:23:55;;;;;;;9.10;2.20;;;;;;;12.50;59.16;98554.50;10313318;28;20086;-78
2022/11/16 11:29:31;;;;;;;16.40;2.63;;;;;;;12.61;58.53;98546.53;10315417;28;20501;-78
2022/11/16 11:34:43;;;;;;;7.70;2.22;;;;;;;12.52;58.61;98534.22;10308916;28;20058;-80
2022/11/16 11:39:46;;;;;;;10.95;3.08;;;;;;;12.65;59.86;98534.78;10306532;28;20065;-78
2022/11/16 11:44:57;;;;;;;14.23;2.15;;;;;;;12.34;58.69;98533.25;10298437;28;20050;-78
2022/11/16 11:50:39;;;;;;;13.13;2.42;;;;;;;12.32;59.20;98518.59;10309286;28;20054;-78
2022/11/16 11:55:41;;;;;;;10.80;2.40;;;;;;;12.61;58.51;98509.81;10294675;28;20050;-78
2022/11/16 12:01:22;;;;;;;15.30;2.65;;;;;;;12.90;57.68;98509.78;10321893;28;20062;-78
2022/11/16 12:06:43;;;;;;;14.00;2.35;;;;;;;12.98;56.44;98494.97;10288182;28;20412;-78
2022/11/16 12:12:06;;;;;;;11.23;2.53;;;;;;;12.85;57.49;98491.84;10310353;28;20046;-78
2022/11/16 12:23:59;;;;;;;10.45;2.40;;;;;;;12.73;56.45;98482.47;10308026;28;20046;-78
2022/11/16 12:29:20;;;;;;;10.30;2.15;;;;;;;12.70;57.31;98477.47;10308927;28;20057;-78
2022/11/16 12:34:42;;;;;;;11.80;2.15;;;;;;;12.84;57.44;98477.03;10307636;28;20527;-79
2022/11/16 12:40:03;;;;;;;9.68;2.20;;;;;;;13.33;56.52;98469.88;10316924;28;20415;-78
2022/11/16 12:45:25;;;;;;;14.88;2.67;;;;;;;13.32;55.69;98458.53;10300870;28;20057;-77
2022/11/16 12:51:18;;;;;;;10.93;2.00;;;;;;;13.35;54.39;98465.31;10313809;28;20050;-77
2022/11/16 12:56:39;;;;;;;10.48;2.75;;;;;;;13.57;54.07;98446.56;10308421;28;20069;-77
2022/11/16 13:01:57;;;;;;;10.32;2.53;;;;;;;13.77;54.39;98442.88;10304078;28;20215;-77
2022/11/16 13:07:15;;;;;;;11.40;2.30;;;;;;;13.40;55.54;98450.78;10309018;28;20065;-79
2022/11/16 13:12:25;;;;;;;10.02;2.60;;;;;;;13.28;56.34;98451.94;10304911;28;20840;-78
2022/11/16 13:17:35;;;;;;;14.65;2.40;;;;;;;13.32;56.72;98441.94;10308326;28;20075;-78
2022/11/16 13:22:43;;;;;;;11.10;1.92;;;;;;;13.43;55.83;98437.38;10321863;28;20121;-78
2022/11/16 13:28:04;;;;;;;15.27;2.30;;;;;;;13.36;55.73;98438.06;10307258;28;20046;-77
2022/11/16 13:33:34;;;;;;;6.38;2.10;;;;;;;13.02;55.81;98431.72;10307737;28;20798;-78
2022/11/16 13:38:51;;;;;;;7.50;2.10;;;;;;;12.92;55.36;98437.00;10313746;28;20053;-78
2022/11/16 13:43:53;;;;;;;7.32;2.05;;;;;;;12.90;56.11;98431.88;10307359;28;20499;-77
2022/11/16 13:48:55;;;;;;;11.38;2.00;;;;;;;12.76;55.58;98432.31;10306698;28;20507;-77
2022/11/16 13:53:57;;;;;;;8.00;1.95;;;;;;;12.80;55.79;98427.63;10308063;28;20069;-77
2022/11/16 13:59:27;;;;;;;7.47;1.85;;;;;;;13.01;56.70;98430.88;10313478;28;20047;-77
2022/11/16 14:04:37;;;;;;;8.53;1.67;;;;;;;13.19;55.36;98410.78;10311405;28;20329;-77
2022/11/16 14:09:45;;;;;;;7.40;1.95;;;;;;;13.38;54.67;98402.81;10324539;28;20488;-77
2022/11/16 14:15:13;;;;;;;8.05;1.92;;;;;;;13.56;52.24;98400.25;10328035;28;20050;-77
2022/11/16 14:20:33;;;;;;;8.95;2.05;;;;;;;13.52;54.07;98393.66;10313552;28;20050;-77
2022/11/16 14:25:41;;;;;;;9.73;2.10;;;;;;;13.33;53.42;98401.63;10311466;28;20046;-77
2022/11/16 14:31:04;;;;;;;12.00;2.30;;;;;;;13.13;54.80;98408.72;10330184;28;20066;-77
2022/11/16 14:36:08;;;;;;;11.93;2.30;;;;;;;12.90;55.82;98424.00;10310231;28;20051;-77
2022/11/16 14:41:21;;;;;;;8.85;2.20;;;;;;;12.62;56.65;98417.03;10311982;28;20523;-78
2022/11/16 14:46:34;;;;;;;11.55;2.92;;;;;;;12.41;57.72;98405.06;10311149;28;20054;-77
2022/11/16 14:51:43;;;;;;;10.10;2.55;;;;;;;12.31;58.42;98407.72;10312038;28;20149;-77
2022/11/16 14:56:58;;;;;;;12.00;2.50;;;;;;;12.28;59.13;98407.97;10313295;28;20053;-77
2022/11/16 15:02:13;;;;;;;10.88;2.85;;;;;;;12.29;59.15;98408.81;10311007;28;20072;-77
2022/11/16 15:07:17;;;;;;;15.38;3.60;;;;;;;12.19;59.93;98400.09;10308791;28;20046;-77
2022/11/16 15:12:41;;;;;;;10.20;2.53;;;;;;;12.15;59.66;98396.91;10308360;28;20048;-78
2022/11/16 15:18:06;;;;;;;9.38;2.63;;;;;;;12.15;59.59;98383.78;10323073;28;20061;-77
2022/11/16 15:23:13;;;;;;;14.45;2.78;;;;;;;12.09;59.47;98377.31;10310864;28;20522;-76
2022/11/16 15:28:19;;;;;;;18.00;3.05;;;;;;;12.00;59.21;98374.72;10313314;28;20046;-77
2022/11/16 15:33:28;;;;;;;12.27;3.28;;;;;;;11.85;59.29;98361.19;10311725;28;20069;-77
2022/11/16 15:38:31;;;;;;;8.40;2.83;;;;;;;11.67;59.72;98364.63;10326910;28;20054;-77
2022/11/16 15:43:38;;;;;;;9.52;2.95;;;;;;;11.45;60.53;98363.09;10313189;28;20065;-77
2022/11/16 15:48:51;;;;;;;7.68;2.22;;;;;;;11.26;60.75;98353.41;10326224;28;20074;-77
2022/11/16 15:53:54;;;;;;;12.40;2.70;;;;;;;11.16;60.89;98354.31;10312283;28;20069;-77
2022/11/16 15:59:00;;;;;;;9.95;2.60;;;;;;;11.00;61.51;98360.03;10310139;28;20043;-77
2022/11/16 16:04:05;;;;;;;15.80;3.10;;;;;;;10.97;62.16;98355.06;10303984;28;20050;-77
2022/11/16 16:09:17;;;;;;;10.20;2.80;;;;;;;10.99;62.16;98363.59;10309924;28;20050;-77
2022/11/16 16:14:29;;;;;;;9.80;2.40;;;;;;;10.80;61.73;98358.31;10310670;28;20054;-78
2022/11/16 16:19:41;;;;;;;13.30;2.42;;;;;;;10.73;62.31;98351.09;10321569;28;20057;-79
2022/11/16 16:24:45;;;;;;;9.02;2.10;;;;;;;10.65;62.34;98350.91;10304353;28;20046;-78
2022/11/16 16:29:48;;;;;;;10.23;2.45;;;;;;;10.52;62.65;98344.13;10319251;28;20053;-78
2022/11/16 16:34:54;;;;;;;10.98;2.25;;;;;;;10.37;62.90;98353.25;10324483;28;20058;-78
2022/11/16 16:39:57;;;;;;;11.75;2.70;;;;;;;10.21;63.32;98346.81;10307305;28;20046;-78
2022/11/16 16:44:59;;;;;;;9.60;2.20;;;;;;;10.08;63.25;98338.34;10301643;28;20074;-78
2022/11/16 16:50:04;;;;;;;8.00;2.13;;;;;;;10.00;63.16;98335.53;10308475;28;20053;-78
2022/11/16 16:55:06;;;;;;;10.20;1.90;;;;;;;9.84;63.55;98319.47;10305977;28;20073;-78
2022/11/16 17:00:16;;;;;;;10.65;2.45;;;;;;;9.77;63.44;98323.56;10306895;28;20404;-78
2022/11/16 17:05:20;;;;;;;10.23;3.57;;;;;;;9.60;64.25;98335.31;10307303;28;20054;-79
2022/11/16 17:10:24;;;;;;;12.25;3.22;;;;;;;9.48;64.66;98329.28;10309620;28;20058;-80
2022/11/16 17:15:29;;;;;;;13.95;3.13;;;;;;;9.37;64.88;98331.97;10322890;28;20062;-81
2022/11/16 17:20:31;;;;;;;13.65;3.97;;;;;;;9.25;65.07;98322.50;10308309;28;20058;-83
2022/11/16 17:25:36;;;;;;;9.98;3.40;;;;;;;9.14;65.19;98317.28;10309104;28;20113;-81
2022/11/16 17:30:41;;;;;;;14.07;3.10;;;;;;;8.95;65.71;98324.09;10315051;28;20061;-80
2022/11/16 17:35:42;;;;;;;11.07;3.03;;;;;;;8.85;66.05;98321.38;10316365;28;20916;-81
2022/11/16 17:40:45;;;;;;;8.43;3.28;;;;;;;8.74;65.97;98316.16;10318364;28;20058;-80
2022/11/16 17:45:49;;;;;;;11.88;3.55;;;;;;;8.65;66.26;98319.47;10316078;28;20049;-79
2022/11/16 17:50:56;;;;;;;15.85;3.90;;;;;;;8.59;67.11;98310.34;10331723;28;20077;-80
2022/11/16 17:55:57;;;;;;;13.20;3.88;;;;;;;8.52;67.32;98300.53;10313613;28;20046;-79
2022/11/16 18:00:59;;;;;;;13.38;5.35;;;;;;;8.46;67.78;98295.81;10324220;28;20066;-79
2022/11/16 18:06:06;;;;;;;18.00;5.72;;;;;;;8.31;69.13;98297.78;10314000;28;20061;-80
2022/11/16 18:11:30;;;;;;;13.38;5.45;;;;;;;8.19;69.30;98303.09;10312724;28;20428;-79
2022/11/16 18:16:32;;;;;;;19.13;6.05;;;;;;;8.24;68.88;98306.19;10308631;28;20061;-79
2022/11/16 18:21:40;;;;;;;14.93;5.50;;;;;;;8.30;69.19;98305.75;10305976;28;20070;-79
2022/11/16 18:26:43;;;;;;;17.13;5.68;;;;;;;8.48;68.89;98296.50;10310516;28;20050;-79
2022/11/16 18:31:48;;;;;;;15.70;5.68;;;;;;;8.46;68.88;98296.63;10313524;28;20054;-78
2022/11/16 18:36:50;;;;;;;15.52;6.30;;;;;;;8.44;68.53;98292.47;10314375;28;20047;-79
2022/11/16 18:41:52;;;;;;;19.48;7.00;;;;;;;8.47;68.64;98284.41;10314282;28;20054;-79
2022/11/16 18:46:55;;;;;;;17.77;6.13;;;;;;;8.50;68.88;98276.38;10311387;28;20097;-79
2022/11/16 18:51:57;;;;;;;16.65;8.35;;;;;;;8.67;68.23;98271.50;10307109;28;20062;-79
2022/11/16 18:57:01;;;;;;;18.23;8.10;;;;;;;8.71;68.15;98270.31;10310398;28;20038;-79
2022/11/16 19:02:05;;;;;;;17.02;7.25;;;;;;;8.68;68.35;98262.75;10319417;28;20670;-80
2022/11/16 19:07:07;;;;;;;16.55;7.00;;;;;;;8.74;68.30;98259.66;10325287;28;20869;-80
2022/11/16 19:12:09;;;;;;;16.95;7.35;;;;;;;8.83;68.39;98263.34;10310950;28;20054;-79
2022/11/16 19:17:11;;;;;;;16.65;6.75;;;;;;;8.94;68.17;98260.69;10310374;28;20047;-79
2022/11/16 19:22:13;;;;;;;17.40;8.15;;;;;;;9.10;67.96;98261.13;10311019;28;20051;-80
2022/11/16 19:27:22;;;;;;;20.77;9.63;;;;;;;9.10;67.81;98255.91;10310426;28;20061;-80
2022/11/16 19:32:24;;;;;;;17.40;8.75;;;;;;;9.05;67.84;98246.78;10310462;28;20635;-80
2022/11/16 19:37:34;;;;;;;21.45;7.72;;;;;;;9.00;67.94;98244.56;10309453;28;20046;-79
2022/11/16 19:42:39;;;;;;;18.15;8.90;;;;;;;8.96;67.86;98243.13;10311610;28;20054;-80
2022/11/16 19:47:44;;;;;;;23.63;9.52;;;;;;;9.01;67.93;98248.84;10309576;28;20050;-80
2022/11/16 19:52:56;;;;;;;18.55;11.02;;;;;;;8.98;67.83;98259.50;10311090;28;20050;-79
2022/11/16 19:57:57;;;;;;;23.88;11.45;;;;;;;9.04;67.91;98261.59;10307219;28;20050;-80
2022/11/16 20:02:59;;;;;;;22.58;10.50;;;;;;;8.93;67.68;98256.44;10326081;28;20046;-80
2022/11/16 20:08:01;;;;;;;20.90;10.00;;;;;;;9.05;67.89;98249.41;10311188;28;20451;-80
2022/11/16 20:13:02;;;;;;;20.77;9.85;;;;;;;9.13;67.67;98250.44;10310436;28;20065;-80
2022/11/16 20:18:04;;;;;;;23.75;10.95;;;;;;;9.02;67.70;98239.22;10303429;28;20057;-80
2022/11/16 20:23:06;;;;;;;22.15;12.38;;;;;;;9.02;67.41;98220.97;10307217;28;20058;-80
2022/11/16 20:28:08;;;;;;;24.15;11.65;;;;;;;8.79;67.57;98202.78;10327413;28;20050;-80
2022/11/16 20:33:10;;;;;;;23.38;11.57;;;;;;;8.59;68.03;98202.69;10311417;28;20058;-80
2022/11/16 20:38:11;;;;;;;20.77;10.38;;;;;;;8.40;68.42;98192.91;10311064;28;20058;-80
2022/11/16 20:43:13;;;;;;;22.67;11.68;;;;;;;8.33;68.43;98178.69;10316207;28;20082;-80
2022/11/16 20:48:15;;;;;;;21.02;11.02;;;;;;;8.24;68.71;98171.59;10311185;28;20054;-80
2022/11/16 20:53:16;;;;;;;19.92;10.80;;;;;;;8.26;68.54;98166.28;10309967;28;20591;-80
2022/11/16 20:58:20;;;;;;;32.95;14.02;;;;;;;8.18;68.54;98163.44;10311777;28;20053;-80
2022/11/16 21:03:23;;;;;;;21.80;12.00;;;;;;;7.91;69.77;98164.63;10324916;28;20409;-80
2022/11/16 21:08:26;;;;;;;19.75;11.55;;;;;;;7.93;70.05;98167.94;10324738;28;20057;-80
2022/11/16 21:18:48;;;;;;;24.58;11.93;;;;;;;8.13;69.59;98158.59;10308003;28;20054;-80
2022/11/16 21:23:50;;;;;;;31.73;14.23;;;;;;;8.22;69.97;98150.03;10309816;28;20413;-80
2022/11/16 21:28:53;;;;;;;32.45;15.30;;;;;;;8.24;69.89;98142.13;10307148;28;20042;-80
2022/11/16 21:33:55;;;;;;;29.00;13.68;;;;;;;8.29;69.94;98142.59;10320313;28;20500;-80
2022/11/16 21:38:57;;;;;;;21.60;11.93;;;;;;;8.45;69.68;98137.81;10314094;28;20057;-80
2022/11/16 21:43:59;;;;;;;30.30;11.32;;;;;;;8.51;69.69;98119.09;10325561;28;20424;-80
2022/11/16 21:49:01;;;;;;;23.70;12.63;;;;;;;8.55;69.60;98118.75;10305081;28;20043;-80
2022/11/16 21:54:03;;;;;;;27.88;13.32;;;;;;;8.66;69.46;98115.28;10307950;28;20062;-80
2022/11/16 21:59:05;;;;;;;27.40;13.52;;;;;;;8.75;69.19;98112.75;10314610;28;20046;-80
2022/11/16 22:09:27;;;;;;;21.75;11.82;;;;;;;8.65;69.60;98095.38;10308976;28;20050;-80
2022/11/16 22:14:29;;;;;;;21.13;11.82;;;;;;;8.76;69.17;98079.69;10307705;28;20061;-81
2022/11/16 22:19:30;;;;;;;24.50;11.63;;;;;;;8.75;69.03;98073.66;10313298;28;20050;-78
2022/11/16 22:24:32;;;;;;;21.73;10.98;;;;;;;8.76;69.12;98070.09;10323106;28;20065;-79
2022/11/16 22:29:34;;;;;;;21.88;10.55;;;;;;;8.66;69.17;98068.38;10314193;28;20077;-79
2022/11/16 22:34:35;;;;;;;20.45;10.88;;;;;;;8.71;69.51;98066.19;10312885;28;20602;-79
2022/11/16 22:39:37;;;;;;;23.00;10.05;;;;;;;8.66;69.73;98055.34;10307615;28;20039;-79
2022/11/16 22:44:39;;;;;;;21.27;9.82;;;;;;;8.60;70.04;98043.66;10310915;28;20062;-79
2022/11/16 22:49:40;;;;;;;21.67;9.75;;;;;;;8.60;70.20;98040.22;10326968;28;20050;-79
2022/11/16 22:54:42;;;;;;;15.77;8.32;;;;;;;8.68;70.24;98032.59;10314022;28;20055;-79
2022/11/16 22:59:43;;;;;;;16.23;7.35;;;;;;;8.73;70.14;98026.03;10311688;28;20825;-79
2022/11/16 23:04:45;;;;;;;12.93;5.30;;;;;;;8.92;69.97;98011.47;10311637;28;20404;-79
2022/11/16 23:09:47;;;;;;;13.75;5.10;;;;;;;9.10;69.50;98005.56;10304268;28;20053;-79
2022/11/16 23:30:50;;;;;;;11.13;3.23;;;;;;;9.36;68.60;97967.66;10312134;28;20073;-79
2022/11/16 23:35:51;;;;;;;12.63;3.13;;;;;;;9.45;68.34;97968.66;10311594;28;20061;-79
2022/11/16 23:40:53;;;;;;;12.25;3.83;;;;;;;9.51;67.79;97948.06;10312244;28;20504;-79
2022/11/16 23:45:54;;;;;;;13.68;3.55;;;;;;;9.56;67.93;97937.25;10312927;28;20109;-79
2022/11/16 23:50:56;;;;;;;10.57;3.55;;;;;;;9.53;67.41;97920.06;10310972;28;20046;-79
2022/11/16 23:56:00;;;;;;;12.13;3.15;;;;;;;9.56;67.49;97921.59;10310279;28;20427;-79
